Time;durP1;ratioP1;P1;durP2;ratioP2;P2;SDS_P1;SDS_P2;PMS_P1;PMS_P2;Temp;Humidity;BMP_temperature;BMP_pressure;BME280_temperature;BME280_humidity;BME280_pressure;Samples;Min_cycle;Max_cycle;Signal;HPM_P1;HPM_P2
2022/11/21 00:02:25;;;;;;;19.05;8.13;;;;;;;4.40;100.00;100356.59;6062263;23;20067;-92
2022/11/21 00:04:50;;;;;;;22.60;8.40;;;;;;;4.36;100.00;100353.19;6036280;23;20024;-92
2022/11/21 00:07:15;;;;;;;18.23;7.72;;;;;;;4.35;100.00;100354.13;6037013;23;20014;-92
2022/11/21 00:09:40;;;;;;;24.08;8.40;;;;;;;4.35;100.00;100348.00;6036841;23;20028;-94
2022/11/21 00:12:06;;;;;;;22.25;9.27;;;;;;;4.37;100.00;100352.28;6036956;23;20373;-93
2022/11/21 00:14:32;;;;;;;31.33;9.20;;;;;;;4.30;100.00;100342.84;6061102;23;20011;-92
2022/11/21 00:16:58;;;;;;;27.17;9.52;;;;;;;4.18;100.00;100325.69;6038755;23;20410;-92
2022/11/21 00:19:23;;;;;;;23.75;9.75;;;;;;;4.23;100.00;100359.78;6039842;23;20003;-91
2022/11/21 00:21:48;;;;;;;24.17;8.93;;;;;;;4.10;100.00;100343.53;6038508;23;20170;-91
2022/11/21 00:24:13;;;;;;;26.00;8.88;;;;;;;4.10;100.00;100350.56;6037818;23;20014;-91
2022/11/21 00:26:39;;;;;;;32.97;9.23;;;;;;;4.05;100.00;100355.09;6038921;23;20034;-93
2022/11/21 00:29:04;;;;;;;34.20;9.98;;;;;;;4.12;100.00;100362.75;6060233;23;20021;-92
2022/11/21 00:31:30;;;;;;;29.70;8.90;;;;;;;4.02;100.00;100358.72;6066764;23;20054;-94
2022/11/21 00:33:55;;;;;;;32.40;9.40;;;;;;;3.98;100.00;100359.72;6067465;23;20416;-95
2022/11/21 00:36:20;;;;;;;28.55;9.30;;;;;;;4.08;100.00;100381.34;6069934;23;20025;-92
2022/11/21 00:38:46;;;;;;;34.67;9.80;;;;;;;4.05;100.00;100360.38;6042871;23;20105;-94
2022/11/21 00:41:11;;;;;;;31.90;10.88;;;;;;;4.16;100.00;100368.78;6069121;23;19991;-93
2022/11/21 00:43:36;;;;;;;32.78;10.82;;;;;;;4.25;100.00;100364.09;6067713;23;20003;-92
2022/11/21 00:46:03;;;;;;;31.55;10.00;;;;;;;4.08;100.00;100341.84;6066820;23;20006;-91
2022/11/21 00:48:29;;;;;;;29.52;9.73;;;;;;;4.18;100.00;100373.13;6066351;23;20031;-92
2022/11/21 00:50:55;;;;;;;33.15;10.13;;;;;;;4.06;100.00;100356.84;6067406;23;20007;-91
2022/11/21 00:53:20;;;;;;;31.15;10.00;;;;;;;3.88;100.00;100345.09;6043084;23;20018;-93
2022/11/21 00:55:46;;;;;;;33.15;9.95;;;;;;;3.83;100.00;100347.88;6067529;23;20007;-93
2022/11/21 00:58:11;;;;;;;26.52;9.60;;;;;;;3.83;100.00;100353.13;6043781;23;20007;-95
2022/11/21 01:00:36;;;;;;;39.85;10.80;;;;;;;3.83;100.00;100354.91;6043991;23;20041;-93
2022/11/21 01:03:02;;;;;;;34.85;10.63;;;;;;;3.74;100.00;100335.00;6043361;23;20017;-92
2022/11/21 01:05:27;;;;;;;38.80;11.50;;;;;;;3.76;100.00;100335.81;6069548;23;20018;-93
2022/11/21 01:07:52;;;;;;;32.00;10.63;;;;;;;3.79;100.00;100337.50;6068471;23;20007;-92
2022/11/21 01:10:17;;;;;;;35.35;10.63;;;;;;;3.81;100.00;100357.59;6043051;23;20007;-93
2022/11/21 01:12:43;;;;;;;35.42;10.18;;;;;;;3.72;100.00;100342.06;6068102;23;20081;-92
2022/11/21 01:15:09;;;;;;;29.73;9.70;;;;;;;3.68;100.00;100353.63;6041085;23;20110;-93
2022/11/21 01:17:34;;;;;;;29.75;10.65;;;;;;;3.66;100.00;100363.31;6068512;23;20009;-95
2022/11/21 01:19:59;;;;;;;34.63;10.20;;;;;;;3.46;100.00;100350.75;6041252;23;20015;-93
2022/11/21 01:22:25;;;;;;;39.97;9.95;;;;;;;3.39;100.00;100347.47;6067943;23;20003;-93
2022/11/21 01:24:50;;;;;;;29.40;9.65;;;;;;;3.38;100.00;100364.13;6068043;23;20015;-93
2022/11/21 01:27:15;;;;;;;25.27;9.75;;;;;;;3.29;100.00;100350.38;6043911;23;20015;-94
2022/11/21 01:29:40;;;;;;;30.58;10.10;;;;;;;3.40;100.00;100354.44;6052597;23;20010;-92
2022/11/21 01:32:06;;;;;;;37.25;11.13;;;;;;;3.53;100.00;100361.97;6056909;23;20010;-92
2022/11/21 01:34:31;;;;;;;34.88;10.52;;;;;;;3.57;100.00;100350.44;6056890;23;20018;-91
2022/11/21 01:36:56;;;;;;;33.05;10.57;;;;;;;3.25;100.00;100303.13;6079316;23;20011;-91
2022/11/21 01:39:22;;;;;;;33.38;10.73;;;;;;;3.50;100.00;100349.75;6053770;23;20231;-92
2022/11/21 01:41:47;;;;;;;34.15;10.77;;;;;;;3.47;100.00;100348.09;6050144;23;20007;-92
2022/11/21 01:44:17;;;;;;;32.25;11.20;;;;;;;3.36;100.00;100338.78;6072064;23;20011;-92
2022/11/21 01:46:43;;;;;;;30.77;11.27;;;;;;;3.24;100.00;100327.72;6069949;23;20085;-92
2022/11/21 01:49:12;;;;;;;29.27;10.63;;;;;;;3.29;100.00;100360.91;6069882;23;20081;-92
2022/11/21 01:52:01;;;;;;;38.70;11.25;;;;;;;3.27;100.00;100365.38;6044748;23;20018;-92
2022/11/21 01:54:55;;;;;;;29.42;10.63;;;;;;;3.10;100.00;100350.94;6042318;23;20015;-94
2022/11/21 01:57:22;;;;;;;27.33;11.45;;;;;;;3.22;100.00;100365.50;6066998;23;20010;-92
2022/11/21 02:00:09;;;;;;;35.95;11.05;;;;;;;3.27;100.00;100362.75;6042884;23;20086;-92
2022/11/21 02:02:38;;;;;;;34.22;12.07;;;;;;;3.31;100.00;100352.09;6042263;23;20086;-90
2022/11/21 02:05:07;;;;;;;32.97;12.30;;;;;;;3.29;100.00;100343.34;6068231;23;20298;-92
2022/11/21 02:07:38;;;;;;;25.48;12.48;;;;;;;3.27;100.00;100350.44;6044264;23;20013;-92
2022/11/21 02:10:04;;;;;;;44.05;12.93;;;;;;;3.13;100.00;100340.28;6044271;23;20011;-91
2022/11/21 02:12:45;;;;;;;25.83;11.13;;;;;;;3.07;100.00;100340.47;6067995;23;20558;-93
2022/11/21 02:15:11;;;;;;;39.90;12.57;;;;;;;3.17;100.00;100362.13;6045548;23;20458;-92
2022/11/21 02:17:36;;;;;;;31.33;11.75;;;;;;;3.11;100.00;100359.66;6067413;23;20013;-91
2022/11/21 02:20:08;;;;;;;32.08;11.85;;;;;;;2.91;100.00;100342.66;6043768;23;20017;-94
2022/11/21 02:23:02;;;;;;;30.00;11.85;;;;;;;3.00;100.00;100363.44;6069850;23;20034;-92
2022/11/21 02:25:36;;;;;;;27.23;10.88;;;;;;;2.90;100.00;100361.13;6067239;23;20017;-93
2022/11/21 02:28:04;;;;;;;28.98;11.77;;;;;;;2.91;100.00;100363.69;6035859;23;20050;-92
2022/11/21 02:30:31;;;;;;;34.03;11.95;;;;;;;2.93;100.00;100377.69;6038681;23;20011;-93
2022/11/21 02:32:56;;;;;;;35.33;11.80;;;;;;;2.85;100.00;100365.66;6038294;23;20441;-93
2022/11/21 02:35:22;;;;;;;28.98;11.93;;;;;;;2.83;100.00;100373.56;6040326;23;20007;-92
2022/11/21 02:37:56;;;;;;;33.90;12.63;;;;;;;2.79;100.00;100366.66;6039027;23;20019;-93
2022/11/21 02:40:25;;;;;;;28.10;11.38;;;;;;;2.67;100.00;100359.94;6039128;23;20015;-91
2022/11/21 02:43:12;;;;;;;26.02;11.40;;;;;;;2.69;100.00;100373.94;6039976;23;20006;-92
2022/11/21 02:45:40;;;;;;;37.38;12.43;;;;;;;2.55;100.00;100367.28;6038365;23;20075;-93
2022/11/21 02:48:06;;;;;;;32.10;12.80;;;;;;;2.61;100.00;100389.03;6037648;23;19991;-91
2022/11/21 02:50:36;;;;;;;39.60;12.80;;;;;;;2.73;100.00;100396.59;6037553;23;20003;-91
2022/11/21 02:53:03;;;;;;;26.85;11.95;;;;;;;2.67;100.00;100382.75;6037341;23;20106;-91
2022/11/21 02:55:28;;;;;;;30.23;12.18;;;;;;;2.77;100.00;100392.13;6037409;23;20055;-94
2022/11/21 02:57:54;;;;;;;39.17;14.02;;;;;;;2.82;100.00;100373.59;6038657;23;20004;-93
2022/11/21 03:00:19;;;;;;;34.40;13.73;;;;;;;2.79;100.00;100361.41;6038861;23;20003;-94
2022/11/21 03:02:45;;;;;;;31.00;13.75;;;;;;;2.85;100.00;100361.25;6037257;23;20000;-94
2022/11/21 03:05:14;;;;;;;36.50;14.15;;;;;;;2.91;100.00;100379.47;6038707;23;20535;-93
2022/11/21 03:07:40;;;;;;;35.10;13.02;;;;;;;2.80;100.00;100368.41;6037086;23;20022;-93
2022/11/21 03:10:06;;;;;;;69.90;23.35;;;;;;;2.73;100.00;100364.19;6036479;23;20011;-93
2022/11/21 03:12:34;;;;;;;99.03;29.27;;;;;;;2.83;100.00;100375.31;6034038;23;20011;-93
2022/11/21 03:15:00;;;;;;;114.13;32.60;;;;;;;2.77;100.00;100376.34;6034670;23;20399;-92
2022/11/21 03:17:25;;;;;;;105.82;34.58;;;;;;;2.78;100.00;100367.56;6034912;23;20007;-93
2022/11/21 03:19:50;;;;;;;209.88;44.35;;;;;;;2.62;100.00;100355.72;6037282;23;20038;-93
2022/11/21 03:22:16;;;;;;;173.75;43.40;;;;;;;2.74;100.00;100379.06;6037223;23;20165;-93
2022/11/21 03:24:41;;;;;;;244.25;52.47;;;;;;;2.59;100.00;100359.31;6036938;23;20003;-93
2022/11/21 03:27:07;;;;;;;293.73;59.95;;;;;;;2.67;100.00;100375.72;6036671;23;20006;-93
2022/11/21 03:29:32;;;;;;;300.52;60.33;;;;;;;2.59;100.00;100363.69;6065066;23;20034;-93
2022/11/21 03:31:58;;;;;;;286.25;58.60;;;;;;;2.61;100.00;100359.25;6068057;23;20410;-91
2022/11/21 03:34:23;;;;;;;176.57;53.05;;;;;;;2.74;100.00;100366.78;6040726;23;20085;-93
2022/11/21 03:36:49;;;;;;;223.73;56.22;;;;;;;2.77;100.00;100363.22;6066039;23;20051;-93
2022/11/21 03:39:14;;;;;;;223.60;59.33;;;;;;;2.80;100.00;100357.00;6066108;23;20011;-94
2022/11/21 03:41:40;;;;;;;283.02;65.47;;;;;;;2.78;100.00;100361.44;6042352;23;19999;-93
2022/11/21 03:44:10;;;;;;;389.38;77.68;;;;;;;2.69;100.00;100354.69;6067825;23;20018;-93
2022/11/21 03:46:38;;;;;;;250.63;63.00;;;;;;;2.72;100.00;100354.59;6044293;23;20021;-94
2022/11/21 03:49:04;;;;;;;256.27;63.95;;;;;;;2.76;100.00;100364.13;6043235;23;20010;-93
2022/11/21 03:51:29;;;;;;;163.35;56.58;;;;;;;2.74;100.00;100364.16;6045285;23;20074;-93
2022/11/21 03:53:55;;;;;;;202.70;60.38;;;;;;;2.72;100.00;100352.84;6071086;23;20011;-93
2022/11/21 03:56:21;;;;;;;242.68;62.97;;;;;;;2.70;100.00;100344.09;6072504;23;20013;-92
2022/11/21 03:58:46;;;;;;;160.23;56.65;;;;;;;2.84;100.00;100356.00;6058751;23;20011;-92
2022/11/21 04:01:14;;;;;;;294.05;66.22;;;;;;;2.73;100.00;100348.44;6059743;23;20088;-92
2022/11/21 04:03:41;;;;;;;193.98;59.05;;;;;;;2.83;100.00;100373.56;6084428;23;20051;-92
2022/11/21 04:06:08;;;;;;;196.60;59.20;;;;;;;2.83;100.00;100365.66;6047630;23;20457;-94
2022/11/21 04:08:33;;;;;;;224.75;61.15;;;;;;;2.86;100.00;100373.47;6065842;23;20069;-92
2022/11/21 04:10:58;;;;;;;167.13;58.45;;;;;;;2.94;100.00;100383.78;6066863;23;20007;-93
2022/11/21 04:13:24;;;;;;;163.27;56.38;;;;;;;2.99;100.00;100381.91;6066195;23;20007;-91
2022/11/21 04:15:49;;;;;;;155.45;55.70;;;;;;;2.99;100.00;100369.63;6041151;23;20010;-93
2022/11/21 04:18:15;;;;;;;157.38;55.00;;;;;;;2.85;100.00;100337.59;6065749;23;20315;-94
2022/11/21 04:20:40;;;;;;;214.10;60.13;;;;;;;2.83;100.00;100346.41;6065105;23;20093;-93
2022/11/21 04:23:06;;;;;;;134.02;51.22;;;;;;;2.86;100.00;100346.34;6041221;23;20458;-95
2022/11/21 04:25:32;;;;;;;172.07;54.97;;;;;;;2.91;100.00;100363.69;6065503;23;20101;-93
2022/11/21 04:28:02;;;;;;;231.20;61.25;;;;;;;2.92;100.00;100365.41;6042230;23;20015;-92
2022/11/21 04:30:28;;;;;;;138.77;52.00;;;;;;;2.87;100.00;100350.69;6067871;23;20189;-92
2022/11/21 04:32:55;;;;;;;222.88;60.10;;;;;;;2.86;100.00;100352.44;6043961;23;20014;-94
2022/11/21 04:35:22;;;;;;;149.15;51.97;;;;;;;2.92;100.00;100359.31;6043654;23;20006;-93
2022/11/21 04:37:47;;;;;;;123.55;51.80;;;;;;;2.77;100.00;100344.81;6043465;23;20066;-94
2022/11/21 04:40:13;;;;;;;161.60;55.22;;;;;;;2.77;100.00;100344.81;6043603;23;20006;-93
2022/11/21 04:42:43;;;;;;;134.27;54.03;;;;;;;2.83;100.00;100352.53;6042799;23;20454;-92
2022/11/21 04:45:09;;;;;;;183.05;60.97;;;;;;;2.85;100.00;100350.72;6043611;23;20018;-92
2022/11/21 04:47:39;;;;;;;130.63;54.92;;;;;;;2.88;100.00;100344.50;6045227;23;20003;-93
2022/11/21 04:50:06;;;;;;;131.68;56.60;;;;;;;2.83;100.00;100328.88;6043636;23;20006;-92
2022/11/21 04:52:32;;;;;;;111.88;52.97;;;;;;;2.88;100.00;100337.50;6069451;23;20007;-94
2022/11/21 04:54:58;;;;;;;100.63;50.53;;;;;;;2.73;100.00;100303.75;6046875;23;20098;-95
2022/11/21 04:57:23;;;;;;;96.40;48.83;;;;;;;2.80;100.00;100318.47;6045892;23;20007;-94
2022/11/21 04:59:49;;;;;;;90.85;47.38;;;;;;;2.69;100.00;100308.22;6045848;23;20022;-94
2022/11/21 05:02:14;;;;;;;103.43;49.28;;;;;;;2.68;100.00;100322.28;6070049;23;20528;-93
2022/11/21 05:04:39;;;;;;;90.85;45.35;;;;;;;2.59;100.00;100313.75;6046005;23;20347;-95
2022/11/21 05:07:04;;;;;;;102.13;47.38;;;;;;;2.62;100.00;100329.44;6045747;23;20002;-92
2022/11/21 05:09:30;;;;;;;85.57;43.55;;;;;;;2.60;100.00;100329.50;6070780;23;20475;-94
2022/11/21 05:14:39;;;;;;;71.47;38.53;;;;;;;2.48;100.00;100324.56;6072947;23;20394;-94
2022/11/21 05:17:04;;;;;;;79.30;41.28;;;;;;;2.39;100.00;100311.69;6048209;23;20032;-93
2022/11/21 05:19:30;;;;;;;75.32;39.95;;;;;;;2.34;100.00;100303.91;6075181;23;20007;-96
2022/11/21 05:21:55;;;;;;;88.72;43.95;;;;;;;2.24;100.00;100297.16;6069552;23;20034;-93
2022/11/21 05:24:20;;;;;;;81.65;40.85;;;;;;;2.24;100.00;100302.41;6044479;23;20464;-93
2022/11/21 05:26:46;;;;;;;79.35;39.78;;;;;;;2.21;100.00;100299.84;6044412;23;20010;-95
2022/11/21 05:29:11;;;;;;;78.07;37.70;;;;;;;2.11;100.00;100295.75;6042554;23;20062;-94
2022/11/21 05:31:37;;;;;;;80.07;37.10;;;;;;;2.11;100.00;100301.88;6047441;23;20047;-93
2022/11/21 05:34:02;;;;;;;70.60;34.97;;;;;;;2.14;100.00;100298.31;6043848;23;20007;-93
2022/11/21 05:36:28;;;;;;;72.88;36.30;;;;;;;2.00;100.00;100281.13;6044818;23;20003;-92
2022/11/21 05:38:53;;;;;;;86.53;38.67;;;;;;;2.06;100.00;100298.50;6043770;23;20007;-94
2022/11/21 05:41:18;;;;;;;66.57;33.72;;;;;;;2.04;100.00;100292.41;6042986;23;20510;-93
2022/11/21 05:43:46;;;;;;;60.55;32.25;;;;;;;2.11;100.00;100293.13;6042185;23;20080;-92
2022/11/21 05:46:14;;;;;;;67.88;32.40;;;;;;;2.13;100.00;100293.94;6043308;23;20014;-92
2022/11/21 05:48:39;;;;;;;53.83;31.23;;;;;;;2.13;100.00;100288.69;6043483;23;20007;-93
2022/11/21 05:51:05;;;;;;;57.63;31.00;;;;;;;2.13;100.00;100275.56;6043452;23;20017;-93
2022/11/21 05:53:30;;;;;;;59.67;31.08;;;;;;;2.22;100.00;100281.47;6067321;23;20019;-93
2022/11/21 05:56:01;;;;;;;57.53;30.08;;;;;;;2.40;100.00;100289.75;6066654;23;20426;-94
2022/11/21 05:58:27;;;;;;;58.85;32.47;;;;;;;2.48;100.00;100270.25;6041390;23;20003;-93
2022/11/21 06:00:56;;;;;;;63.20;32.92;;;;;;;2.70;100.00;100282.81;6041750;23;20014;-93
2022/11/21 06:03:27;;;;;;;70.25;35.05;;;;;;;2.66;100.00;100263.63;6041809;23;20018;-93
2022/11/21 06:06:13;;;;;;;72.10;37.03;;;;;;;2.93;100.00;100280.41;6042024;23;20508;-94
2022/11/21 06:08:45;;;;;;;80.90;37.72;;;;;;;3.08;100.00;100280.88;6066582;23;20471;-95
2022/11/21 06:11:15;;;;;;;74.90;38.10;;;;;;;3.08;100.00;100263.31;6067817;23;20011;-96
2022/11/21 06:13:41;;;;;;;85.45;40.70;;;;;;;3.17;100.00;100262.19;6067208;23;20058;-95
2022/11/21 06:16:14;;;;;;;91.47;41.40;;;;;;;3.26;100.00;100280.34;6043416;23;20015;-96
2022/11/21 06:18:42;;;;;;;76.40;41.28;;;;;;;3.21;100.00;100263.81;6041529;23;20014;-95
2022/11/21 06:21:11;;;;;;;83.78;40.75;;;;;;;3.17;100.00;100254.28;6041943;23;20014;-93
2022/11/21 06:23:37;;;;;;;84.55;39.55;;;;;;;3.25;100.00;100275.97;6047478;23;20011;-93
2022/11/21 06:26:05;;;;;;;81.72;41.22;;;;;;;3.26;100.00;100275.09;6063506;23;19995;-93
2022/11/21 06:28:35;;;;;;;82.50;42.88;;;;;;;3.31;100.00;100274.94;6017614;23;1108729;-94
2022/11/21 06:31:05;;;;;;;98.47;43.38;;;;;;;3.26;100.00;100269.81;6061083;23;20082;-94
2022/11/21 06:33:32;;;;;;;88.30;43.10;;;;;;;3.34;100.00;100273.06;6046220;23;20089;-94
2022/11/21 06:36:00;;;;;;;84.57;42.60;;;;;;;3.37;100.00;100266.84;6046438;23;20021;-94
2022/11/21 06:38:26;;;;;;;90.00;43.05;;;;;;;3.27;100.00;100245.25;6046127;23;20011;-94
2022/11/21 06:40:51;;;;;;;86.55;43.55;;;;;;;3.28;100.00;100251.34;6044470;23;20333;-94
2022/11/21 06:43:16;;;;;;;81.28;41.03;;;;;;;3.15;100.00;100225.44;6045220;23;20034;-93
2022/11/21 06:45:42;;;;;;;87.32;41.78;;;;;;;3.19;100.00;100236.72;6046930;23;20098;-94
2022/11/21 06:48:07;;;;;;;83.22;41.00;;;;;;;3.34;100.00;100259.03;6046337;23;20446;-93
2022/11/21 06:50:32;;;;;;;85.07;41.50;;;;;;;3.25;100.00;100231.25;6046134;23;20011;-94
2022/11/21 06:52:58;;;;;;;82.72;42.75;;;;;;;3.33;100.00;100247.66;6072425;23;20029;-94
2022/11/21 06:55:26;;;;;;;83.88;42.85;;;;;;;3.43;100.00;100257.00;6070909;23;20010;-95
2022/11/21 06:57:52;;;;;;;87.45;42.67;;;;;;;3.45;100.00;100264.84;6047976;23;20017;-96
2022/11/21 07:00:18;;;;;;;88.43;42.83;;;;;;;3.42;100.00;100249.16;6052518;23;20007;-94
2022/11/21 07:02:43;;;;;;;81.45;41.33;;;;;;;3.46;100.00;100248.16;6043662;23;20022;-93
2022/11/21 07:05:08;;;;;;;83.25;41.25;;;;;;;3.38;100.00;100234.38;6069855;23;20042;-92
2022/11/21 07:07:34;;;;;;;87.28;41.10;;;;;;;3.40;100.00;100241.31;6043137;23;20015;-90
2022/11/21 07:09:59;;;;;;;72.82;39.22;;;;;;;3.49;100.00;100243.66;6067779;23;20030;-92
2022/11/21 07:15:09;;;;;;;;;;;;;;;3.54;100.00;100243.50;6070047;23;20105;-93
2022/11/21 07:17:34;;;;;;;73.40;36.67;;;;;;;3.47;100.00;100248.13;6043809;23;19909;-94
2022/11/21 07:19:59;;;;;;;76.80;36.75;;;;;;;3.40;100.00;100240.47;6069722;23;20006;-94
2022/11/21 07:22:25;;;;;;;67.32;34.70;;;;;;;3.28;100.00;100218.03;6043015;23;20013;-92
2022/11/21 07:24:50;;;;;;;60.95;32.72;;;;;;;3.29;100.00;100227.63;6072391;23;20017;-95
2022/11/21 07:27:15;;;;;;;68.13;34.17;;;;;;;3.43;100.00;100251.75;6045082;23;20098;-94
2022/11/21 07:29:41;;;;;;;73.03;35.03;;;;;;;3.47;100.00;100231.47;6043193;23;20003;-92
2022/11/21 07:32:06;;;;;;;69.32;35.58;;;;;;;3.43;100.00;100229.84;6066808;23;19991;-93
2022/11/21 07:34:31;;;;;;;68.32;33.80;;;;;;;3.47;100.00;100234.09;6047122;23;20026;-92
2022/11/21 07:36:56;;;;;;;68.88;34.05;;;;;;;3.47;100.00;100237.59;6067336;23;20003;-93
2022/11/21 07:39:22;;;;;;;60.03;32.50;;;;;;;3.49;100.00;100237.53;6071323;23;20011;-94
2022/11/21 07:41:47;;;;;;;60.35;32.38;;;;;;;3.57;100.00;100242.56;6070314;23;20006;-93
2022/11/21 07:44:12;;;;;;;62.38;33.80;;;;;;;3.53;100.00;100233.91;6069199;23;20445;-93
2022/11/21 07:46:37;;;;;;;56.13;32.08;;;;;;;3.59;100.00;100236.31;6045238;23;20007;-93
2022/11/21 07:49:03;;;;;;;62.17;33.47;;;;;;;3.59;100.00;100238.94;6046245;23;20005;-91
2022/11/21 07:51:28;;;;;;;54.25;31.10;;;;;;;3.58;100.00;100233.75;6067059;23;20006;-94
2022/11/21 07:53:53;;;;;;;55.90;31.85;;;;;;;3.64;100.00;100244.09;6043845;23;20445;-91
2022/11/21 07:56:19;;;;;;;51.67;30.30;;;;;;;3.65;100.00;100235.28;6068627;23;20542;-89
2022/11/21 07:58:44;;;;;;;51.80;29.75;;;;;;;3.61;100.00;100226.63;6066739;23;20003;-91
2022/11/21 08:01:09;;;;;;;54.53;29.42;;;;;;;3.51;100.00;100206.75;6065216;23;20013;-93
2022/11/21 08:03:35;;;;;;;50.55;28.48;;;;;;;3.61;100.00;100212.59;6065536;23;20014;-92
2022/11/21 08:06:04;;;;;;;55.13;28.52;;;;;;;3.68;100.00;100222.88;6067561;23;20010;-87
2022/11/21 08:08:30;;;;;;;52.45;27.05;;;;;;;3.59;100.00;100202.13;6070124;23;20030;-94
2022/11/21 08:10:56;;;;;;;47.20;27.33;;;;;;;3.59;100.00;100209.16;6066519;23;20011;-90
2022/11/21 08:13:21;;;;;;;52.17;28.20;;;;;;;3.55;100.00;100197.84;6068317;23;20034;-92
2022/11/21 08:15:46;;;;;;;52.35;29.17;;;;;;;3.40;100.00;100183.44;6040107;23;20161;-92
2022/11/21 08:18:14;;;;;;;48.28;27.60;;;;;;;3.48;100.00;100220.88;6065207;23;20011;-94
2022/11/21 08:20:40;;;;;;;49.65;26.83;;;;;;;3.39;100.00;100210.66;6067607;23;20312;-87
2022/11/21 08:23:05;;;;;;;54.58;27.15;;;;;;;3.39;100.00;100208.03;6066137;23;20010;-93
2022/11/21 08:45:35;;;;;;;45.22;23.75;;;;;;;3.36;100.00;100183.59;6147756;23;20057;-94
2022/11/21 08:48:01;;;;;;;40.05;24.02;;;;;;;3.19;100.00;100139.41;6148179;23;20074;-93
2022/11/21 08:50:27;;;;;;;41.10;22.40;;;;;;;3.29;100.00;100163.66;6149846;23;19998;-93
2022/11/21 08:52:57;;;;;;;42.05;23.45;;;;;;;3.11;100.00;100133.53;6140071;23;20010;-93
2022/11/21 08:55:22;;;;;;;42.63;23.50;;;;;;;3.42;100.00;100178.13;6127904;23;20013;-92
2022/11/21 08:57:48;;;;;;;41.10;22.33;;;;;;;3.20;100.00;100135.88;6128446;23;20084;-93
2022/11/21 09:00:14;;;;;;;37.75;21.52;;;;;;;3.34;100.00;100159.94;6129748;23;20500;-93
2022/11/21 09:02:39;;;;;;;41.67;22.30;;;;;;;3.45;100.00;100164.88;6128886;23;20041;-94
2022/11/21 09:05:05;;;;;;;35.90;20.45;;;;;;;3.50;100.00;100174.31;6126210;23;19994;-93
2022/11/21 09:07:30;;;;;;;33.95;19.70;;;;;;;3.41;100.00;100158.84;6124764;23;20200;-92
2022/11/21 09:09:55;;;;;;;38.00;21.17;;;;;;;3.46;100.00;100156.06;6124896;23;20491;-94
2022/11/21 09:12:24;;;;;;;38.72;20.25;;;;;;;3.50;100.00;100161.16;6126979;23;20088;-93
2022/11/21 09:20:18;;;;;;;34.30;19.88;;;;;;;3.53;100.00;100144.44;6124212;23;20048;-92
2022/11/21 09:22:43;;;;;;;31.08;18.95;;;;;;;3.54;100.00;100140.88;6125913;23;20006;-95
2022/11/21 09:25:08;;;;;;;38.55;20.65;;;;;;;3.58;100.00;100147.78;6128093;23;20006;-92
2022/11/21 09:27:33;;;;;;;35.78;19.88;;;;;;;3.68;100.00;100157.09;6127725;23;20321;-93
2022/11/21 09:29:59;;;;;;;36.47;20.60;;;;;;;3.74;100.00;100150.75;6128374;23;20006;-94
2022/11/21 09:32:24;;;;;;;35.78;21.02;;;;;;;3.72;100.00;100149.94;6126972;23;20299;-93
2022/11/21 09:34:49;;;;;;;39.90;21.50;;;;;;;3.79;100.00;100146.19;6102482;23;20025;-94
2022/11/21 09:37:15;;;;;;;34.92;20.30;;;;;;;3.71;100.00;100120.13;6127680;23;20014;-93
2022/11/21 09:39:40;;;;;;;35.67;20.15;;;;;;;3.73;100.00;100117.47;6102113;23;20010;-92
2022/11/21 09:42:43;;;;;;;41.13;21.27;;;;;;;3.81;100.00;100135.63;6128139;23;20006;-93
2022/11/21 09:45:18;;;;;;;35.35;19.95;;;;;;;3.82;100.00;100125.03;6126564;23;20025;-94
2022/11/21 09:47:48;;;;;;;34.75;21.05;;;;;;;3.75;100.00;100111.22;6100731;23;20417;-94
2022/11/21 09:50:13;;;;;;;34.60;20.65;;;;;;;3.85;100.00;100126.72;6127296;23;20077;-91
2022/11/21 09:53:02;;;;;;;35.33;21.05;;;;;;;3.89;100.00;100116.03;6132422;23;20014;-94
2022/11/21 09:55:57;;;;;;;38.45;21.63;;;;;;;3.95;100.00;100118.41;6135366;23;20009;-94
2022/11/21 09:58:47;;;;;;;33.00;19.60;;;;;;;3.98;100.00;100117.47;6134013;23;20010;-92
2022/11/21 10:01:14;;;;;;;32.42;18.85;;;;;;;3.97;100.00;100095.53;6124240;23;20030;-93
2022/11/21 10:03:44;;;;;;;35.92;19.48;;;;;;;3.93;100.00;100087.78;6098473;23;20159;-94
2022/11/21 10:06:18;;;;;;;36.28;17.58;;;;;;;4.06;100.00;100104.88;6125614;23;20416;-93
2022/11/21 10:09:14;;;;;;;37.15;18.60;;;;;;;4.14;100.00;100096.69;6099376;23;20141;-94
2022/11/21 10:15:04;;;;;;;32.42;16.80;;;;;;;4.30;100.00;100095.22;6125899;23;20039;-92
2022/11/21 10:18:03;;;;;;;30.90;15.57;;;;;;;4.36;100.00;100083.59;6099000;23;20743;-92
2022/11/21 10:20:34;;;;;;;27.17;13.90;;;;;;;4.34;100.00;100088.06;6122773;23;20118;-92
2022/11/21 10:23:37;;;;;;;27.40;14.65;;;;;;;4.35;100.00;100079.25;6123889;23;20483;-93
2022/11/21 10:26:21;;;;;;;26.42;14.18;;;;;;;4.28;100.00;100054.91;6125591;23;20100;-93
2022/11/21 10:28:58;;;;;;;25.05;14.43;;;;;;;4.55;100.00;100065.31;6098756;23;19994;-91
2022/11/21 10:31:29;;;;;;;27.92;14.63;;;;;;;4.61;100.00;100044.84;6124085;23;20005;-92
2022/11/21 10:33:58;;;;;;;24.17;13.82;;;;;;;4.75;100.00;100033.75;6098235;23;20009;-92
2022/11/21 10:36:33;;;;;;;25.38;11.85;;;;;;;4.97;100.00;100054.84;6100910;23;20006;-92
2022/11/21 10:39:04;;;;;;;19.40;9.60;;;;;;;4.99;100.00;100050.38;6099096;23;20028;-92
2022/11/21 10:41:47;;;;;;;15.88;9.13;;;;;;;5.00;100.00;100060.00;6094170;23;20005;-93
2022/11/21 10:47:26;;;;;;;16.40;7.85;;;;;;;5.12;100.00;100045.47;6127300;23;20049;-94
2022/11/21 10:49:56;;;;;;;16.88;7.05;;;;;;;5.21;100.00;100047.72;6099354;23;20009;-93
2022/11/21 10:52:25;;;;;;;17.15;7.28;;;;;;;5.20;100.00;100027.53;6101508;23;20049;-93
2022/11/21 10:55:03;;;;;;;15.50;6.53;;;;;;;5.42;100.00;100036.25;6099310;23;20014;-94
2022/11/21 10:57:35;;;;;;;13.88;6.95;;;;;;;5.50;100.00;100034.16;6101727;23;20080;-92
2022/11/21 11:00:13;;;;;;;13.32;7.18;;;;;;;5.66;100.00;100025.56;6101401;23;20001;-92
2022/11/21 11:02:40;;;;;;;18.90;6.65;;;;;;;5.73;100.00;100013.81;6100534;23;20041;-92
2022/11/21 11:05:15;;;;;;;13.90;6.15;;;;;;;5.91;100.00;100031.47;6101937;23;20088;-92
2022/11/21 11:07:41;;;;;;;13.32;5.97;;;;;;;5.98;100.00;100025.03;6117197;23;19990;-92
2022/11/21 11:10:20;;;;;;;11.63;5.45;;;;;;;5.96;100.00;100013.69;6121426;23;19993;-93
2022/11/21 11:15:32;;;;;;;13.98;5.78;;;;;;;5.73;100.00;99995.34;6148197;23;20037;-92
2022/11/21 11:18:03;;;;;;;12.88;5.32;;;;;;;5.77;100.00;100009.25;6147809;23;19998;-93
2022/11/21 11:20:36;;;;;;;12.20;5.13;;;;;;;5.68;100.00;100000.81;6137899;23;20013;-93
2022/11/21 11:23:26;;;;;;;12.77;5.40;;;;;;;5.64;100.00;99990.44;6103008;23;20424;-92
2022/11/21 11:25:59;;;;;;;10.88;5.20;;;;;;;5.61;100.00;99988.81;6128407;23;20471;-91
2022/11/21 11:28:35;;;;;;;10.40;4.70;;;;;;;5.60;100.00;99973.91;6129322;23;20073;-90
2022/11/21 11:31:00;;;;;;;11.40;5.22;;;;;;;5.66;100.00;99976.25;6100702;23;20006;-85
2022/11/21 11:33:33;;;;;;;7.47;4.70;;;;;;;5.64;100.00;99964.03;6121869;23;20049;-90
2022/11/21 11:36:15;;;;;;;12.32;4.90;;;;;;;5.67;100.00;99970.06;6129426;23;20016;-90
2022/11/21 11:38:52;;;;;;;10.27;5.18;;;;;;;5.59;100.00;99961.63;6125957;23;20002;-88
2022/11/21 11:48:00;;;;;;;11.75;4.63;;;;;;;5.35;100.00;99926.63;6127241;23;20384;-90
2022/11/21 11:50:35;;;;;;;11.10;4.20;;;;;;;5.28;100.00;99914.63;6124309;23;20006;-88
2022/11/21 11:53:26;;;;;;;11.50;4.18;;;;;;;5.28;100.00;99925.19;6103806;23;19998;-91
2022/11/21 11:55:56;;;;;;;7.72;4.07;;;;;;;5.22;100.00;99920.16;6083618;23;20018;-87
2022/11/21 11:58:32;;;;;;;10.15;4.35;;;;;;;5.19;100.00;99907.13;6122443;23;20017;-92
2022/11/21 12:01:05;;;;;;;9.85;4.63;;;;;;;5.20;100.00;99908.81;6121581;23;20092;-89
2022/11/21 12:04:09;;;;;;;10.00;4.30;;;;;;;5.21;100.00;99899.97;6123700;23;20077;-85